Time;durP1;ratioP1;P1;durP2;ratioP2;P2;SDS_P1;SDS_P2;PMS_P1;PMS_P2;Temp;Humidity;BMP_temperature;BMP_pressure;BME280_temperature;BME280_humidity;BME280_pressure;Samples;Min_cycle;Max_cycle;Signal;HPM_P1;HPM_P2
2023/02/22 00:02:23;;;;;;;;;46.50;39.00;;;;;13.04;60.18;100942.19;4891732;28;45886;-66
2023/02/22 00:04:49;;;;;;;;;50.25;40.25;;;;;13.11;60.12;100943.66;4902166;29;46264;-66
2023/02/22 00:07:14;;;;;;;;;48.50;39.00;;;;;13.13;60.42;100955.19;4912699;28;45513;-66
2023/02/22 00:09:39;;;;;;;;;47.75;39.00;;;;;13.18;60.33;100947.88;4915583;28;46908;-66
2023/02/22 00:12:05;;;;;;;;;51.25;41.00;;;;;13.15;60.48;100945.31;4907572;28;45549;-66
2023/02/22 00:14:30;;;;;;;;;46.50;39.25;;;;;13.09;60.28;100942.88;4902157;29;45936;-66
2023/02/22 00:16:58;;;;;;;;;49.00;39.75;;;;;13.14;60.47;100946.22;4884823;29;45363;-66
2023/02/22 00:19:25;;;;;;;;;44.00;38.75;;;;;13.16;60.69;100947.94;4885396;29;45494;-66
2023/02/22 00:21:53;;;;;;;;;51.00;42.00;;;;;13.11;60.40;100933.84;4916040;28;45597;-66
2023/02/22 00:24:24;;;;;;;;;50.50;42.50;;;;;13.13;60.62;100934.66;4912623;28;46398;-66
2023/02/22 00:26:54;;;;;;;;;47.50;38.75;;;;;13.12;60.56;100935.56;4920124;28;45390;-66
2023/02/22 00:29:20;;;;;;;;;49.00;41.00;;;;;13.13;60.52;100923.94;4911495;28;45522;-67
2023/02/22 00:31:46;;;;;;;;;43.00;37.75;;;;;13.07;60.70;100916.13;4905376;28;45743;-66
2023/02/22 00:34:13;;;;;;;;;48.25;40.50;;;;;13.11;60.88;100922.22;4917922;28;46382;-66
2023/02/22 00:36:47;;;;;;;;;49.50;39.75;;;;;13.16;60.83;100939.00;4899692;29;45388;-66
2023/02/22 00:39:12;;;;;;;;;52.00;43.00;;;;;13.08;60.79;100915.22;4913788;28;45316;-66
2023/02/22 00:41:38;;;;;;;;;17.75;15.00;;;;;13.04;60.75;100910.03;4901665;28;45512;-66
2023/02/22 00:44:03;;;;;;;;;51.75;42.50;;;;;13.12;60.68;100916.81;4890626;29;48393;-66
2023/02/22 00:46:28;;;;;;;;;55.75;44.75;;;;;13.13;60.87;100915.00;4901832;29;45402;-66
2023/02/22 00:48:54;;;;;;;;;46.75;40.75;;;;;13.09;60.78;100895.50;4902062;29;45507;-66
2023/02/22 00:51:19;;;;;;;;;49.00;39.50;;;;;13.14;60.82;100909.56;4900420;29;45358;-66
2023/02/22 00:53:44;;;;;;;;;43.50;37.25;;;;;13.09;61.18;100902.66;4905590;28;45296;-66
2023/02/22 00:56:10;;;;;;;;;51.25;41.75;;;;;13.10;61.04;100905.28;4901467;29;45382;-66
2023/02/22 00:58:35;;;;;;;;;49.50;41.50;;;;;13.13;61.15;100907.84;4894945;28;45461;-66
2023/02/22 01:01:01;;;;;;;;;51.75;43.25;;;;;13.13;61.15;100909.63;4898738;29;46006;-66
2023/02/22 01:03:26;;;;;;;;;53.00;43.50;;;;;13.14;61.07;100904.22;4902419;28;45343;-66
2023/02/22 01:05:52;;;;;;;;;50.25;41.00;;;;;13.16;61.12;100905.06;4904921;28;45386;-66
2023/02/22 01:08:17;;;;;;;;;50.75;41.75;;;;;13.07;60.88;100880.44;4911816;28;45386;-66
2023/02/22 01:10:44;;;;;;;;;52.50;42.00;;;;;13.19;61.11;100905.84;4918871;28;45637;-66
2023/02/22 01:13:10;;;;;;;;;47.75;40.50;;;;;13.19;61.08;100898.69;4910694;28;46477;-66
2023/02/22 01:15:38;;;;;;;;;52.75;44.00;;;;;13.18;60.93;100899.63;4904822;28;45459;-66
2023/02/22 01:18:05;;;;;;;;;46.50;39.00;;;;;13.10;60.95;100883.00;4872291;29;45388;-66
2023/02/22 01:20:31;;;;;;;;;49.25;41.25;;;;;13.21;60.96;100898.63;4903483;28;45355;-66
2023/02/22 01:22:59;;;;;;;;;51.00;41.75;;;;;13.22;60.86;100898.56;4913360;28;45311;-66
2023/02/22 01:25:27;;;;;;;;;52.00;42.25;;;;;13.23;61.02;100905.66;4912394;28;46017;-66
2023/02/22 01:27:52;;;;;;;;;49.50;39.00;;;;;13.22;60.99;100898.56;4912095;28;45427;-66
2023/02/22 01:30:23;;;;;;;;;51.50;42.00;;;;;13.18;60.87;100888.00;4913443;28;45459;-66
2023/02/22 01:32:50;;;;;;;;;53.75;42.25;;;;;13.22;60.86;100897.69;4913005;28;45336;-66
2023/02/22 01:35:20;;;;;;;;;50.25;40.25;;;;;13.16;60.70;100885.41;4888204;29;45759;-66
2023/02/22 01:37:45;;;;;;;;;48.50;41.75;;;;;13.18;60.85;100877.28;4889390;29;45478;-66
2023/02/22 01:40:24;;;;;;;;;49.75;40.25;;;;;13.08;60.67;100871.44;4911038;28;45420;-66
2023/02/22 01:42:56;;;;;;;;;55.00;44.00;;;;;13.13;60.72;100883.72;4904116;28;45429;-66
2023/02/22 01:45:33;;;;;;;;;54.25;45.00;;;;;13.19;60.67;100892.44;4904664;29;45261;-66
2023/02/22 01:48:02;;;;;;;;;56.75;45.00;;;;;13.19;60.91;100892.44;4904471;28;45328;-66
2023/02/22 01:50:30;;;;;;;;;43.75;37.50;;;;;13.15;60.55;100884.53;4908477;28;45401;-66
2023/02/22 01:52:56;;;;;;;;;55.25;45.00;;;;;13.17;60.72;100889.84;4904081;28;45335;-66
2023/02/22 01:55:22;;;;;;;;;53.50;43.50;;;;;13.18;60.53;100890.69;4904386;29;45392;-66
2023/02/22 01:57:48;;;;;;;;;53.75;43.25;;;;;13.14;60.65;100887.28;4907720;28;45277;-66
2023/02/22 02:00:19;;;;;;;;;46.75;39.25;;;;;13.20;61.02;100895.06;4910998;28;45527;-66
2023/02/22 02:02:48;;;;;;;;;47.25;39.25;;;;;13.17;60.78;100884.47;4903906;28;45591;-66
2023/02/22 02:05:14;;;;;;;;;54.00;43.25;;;;;13.05;61.04;100861.72;4904114;29;45309;-66
2023/02/22 02:07:39;;;;;;;;;55.75;45.50;;;;;13.12;60.84;100881.09;4896391;28;45362;-66
2023/02/22 02:10:13;;;;;;;;;49.75;42.00;;;;;13.13;60.70;100880.16;4922216;28;45414;-66
2023/02/22 02:12:42;;;;;;;;;53.75;43.50;;;;;13.11;60.91;100874.00;4916636;28;45382;-64
2023/02/22 02:15:29;;;;;;;;;57.50;45.25;;;;;13.03;60.77;100860.91;4904044;29;45354;-64
2023/02/22 02:17:59;;;;;;;;;52.25;43.00;;;;;13.10;60.66;100878.50;4903657;28;45336;-64
2023/02/22 02:20:52;;;;;;;;;54.50;45.75;;;;;13.09;60.97;100889.28;4917903;28;45516;-64
2023/02/22 02:23:52;;;;;;;;;56.00;46.50;;;;;13.08;60.89;100887.50;4892200;29;47023;-64
2023/02/22 02:26:55;;;;;;;;;56.00;44.00;;;;;13.05;61.08;100875.13;4917351;28;45462;-64
2023/02/22 02:29:32;;;;;;;;;54.75;45.00;;;;;13.03;61.35;100870.75;4918722;28;45350;-64
2023/02/22 02:32:27;;;;;;;;;54.00;44.25;;;;;13.01;61.21;100869.94;4906647;28;45331;-64
2023/02/22 02:35:38;;;;;;;;;53.25;45.50;;;;;12.98;61.47;100866.47;4903668;28;45416;-66
2023/02/22 02:38:07;;;;;;;;;53.75;45.00;;;;;12.97;61.32;100871.88;4915355;28;45757;-66
2023/02/22 02:40:44;;;;;;;;;54.75;45.25;;;;;12.96;61.35;100865.66;4921912;28;45733;-66
2023/02/22 02:43:38;;;;;;;;;52.00;43.75;;;;;12.94;61.35;100863.97;4918584;28;45391;-66
2023/02/22 02:46:10;;;;;;;;;54.50;45.75;;;;;12.88;61.34;100853.47;4912979;28;45578;-66
2023/02/22 02:48:42;;;;;;;;;51.00;42.25;;;;;12.92;61.65;100858.66;4913493;28;45674;-66
2023/02/22 02:51:13;;;;;;;;;51.50;42.75;;;;;12.92;61.58;100860.47;4911344;28;45584;-66
2023/02/22 02:53:43;;;;;;;;;49.00;40.75;;;;;12.93;61.52;100854.16;4886456;29;45442;-66
2023/02/22 02:56:09;;;;;;;;;50.50;42.00;;;;;12.92;61.48;100845.25;4886049;29;47400;-66
2023/02/22 02:58:44;;;;;;;;;48.75;41.75;;;;;12.72;61.58;100813.06;4912496;28;45364;-66
2023/02/22 03:01:13;;;;;;;;;50.75;43.00;;;;;12.89;61.70;100850.75;4916186;28;45372;-66
2023/02/22 03:04:02;;;;;;;;;53.25;43.00;;;;;12.88;61.66;100848.13;4909628;28;45662;-66
2023/02/22 03:06:43;;;;;;;;;49.00;40.75;;;;;12.83;61.58;100836.72;4896858;28;45602;-66
2023/02/22 03:09:19;;;;;;;;;51.00;41.50;;;;;12.86;61.60;100848.19;4921302;28;45392;-66
2023/02/22 03:12:04;;;;;;;;;52.50;42.50;;;;;12.80;61.90;100843.09;4904242;28;45396;-66
2023/02/22 03:14:32;;;;;;;;;49.00;42.00;;;;;12.85;61.85;100843.78;4910899;28;45478;-66
2023/02/22 03:16:57;;;;;;;;;50.75;42.00;;;;;12.83;61.81;100840.28;4921546;28;45451;-66
2023/02/22 03:19:26;;;;;;;;;52.00;41.33;;;;;12.80;61.97;100848.44;4913595;28;45425;-66
2023/02/22 03:22:23;;;;;;;;;52.50;44.00;;;;;12.78;61.90;100850.31;4908176;28;45431;-66
2023/02/22 03:25:07;;;;;;;;;51.00;41.25;;;;;12.76;61.93;100847.69;4906063;28;45476;-66
2023/02/22 03:27:47;;;;;;;;;44.50;37.00;;;;;12.70;61.92;100837.22;4916372;28;45597;-66
2023/02/22 03:30:22;;;;;;;;;49.50;41.00;;;;;12.64;62.07;100825.88;4904764;28;45508;-66
2023/02/22 03:32:51;;;;;;;;;48.50;40.25;;;;;12.69;62.15;100829.25;4919509;28;45514;-66
2023/02/22 03:35:24;;;;;;;;;48.25;40.00;;;;;12.67;62.54;100834.66;4920929;28;45897;-66
2023/02/22 03:37:55;;;;;;;;;46.50;39.00;;;;;12.57;62.13;100815.41;4916373;28;47549;-66
2023/02/22 03:40:27;;;;;;;;;43.75;38.50;;;;;12.66;62.42;100821.31;4885613;29;45778;-66
2023/02/22 03:43:05;;;;;;;;;48.75;40.50;;;;;12.63;62.36;100816.09;4909535;28;45482;-66
2023/02/22 03:45:33;;;;;;;;;49.75;41.25;;;;;12.58;62.35;100814.47;4902849;29;45289;-66
2023/02/22 03:48:13;;;;;;;;;53.00;40.75;;;;;12.61;62.38;100826.84;4904495;28;45467;-66
2023/02/22 03:50:39;;;;;;;;;50.25;38.25;;;;;12.63;62.46;100837.50;4905614;28;45794;-66
2023/02/22 03:53:06;;;;;;;;;47.00;39.25;;;;;12.62;62.50;100828.63;4902933;28;45438;-66
2023/02/22 03:55:32;;;;;;;;;51.00;42.00;;;;;12.60;62.10;100825.13;4901130;28;45545;-66
2023/02/22 03:57:59;;;;;;;;;51.50;43.50;;;;;12.58;62.16;100827.00;4920197;28;45552;-66
2023/02/22 04:00:28;;;;;;;;;48.75;40.25;;;;;12.52;62.25;100809.34;4915623;28;45728;-66
2023/02/22 04:02:54;;;;;;;;;46.50;39.25;;;;;12.58;62.56;100819.84;4902635;29;45651;-66
2023/02/22 04:05:20;;;;;;;;;42.25;34.75;;;;;12.53;62.64;100807.53;4911176;28;45517;-66
2023/02/22 04:07:46;;;;;;;;;47.75;40.75;;;;;12.48;62.47;100782.75;4906544;28;45562;-66
2023/02/22 04:10:14;;;;;;;;;51.25;43.25;;;;;12.58;62.55;100811.81;4919576;28;45397;-66
2023/02/22 04:12:39;;;;;;;;;46.75;40.50;;;;;12.60;62.57;100809.06;4915135;28;45288;-66
2023/02/22 04:15:06;;;;;;;;;41.00;36.50;;;;;12.58;62.46;100806.44;4902491;28;45403;-66
2023/02/22 04:17:31;;;;;;;;;49.50;39.50;;;;;12.57;62.43;100809.19;4919798;28;45547;-66
2023/02/22 04:19:57;;;;;;;;;47.50;38.50;;;;;12.58;62.71;100805.59;4909659;28;45431;-66
2023/02/22 04:22:22;;;;;;;;;48.75;38.75;;;;;12.60;62.61;100811.75;4893744;29;45578;-66
2023/02/22 04:24:47;;;;;;;;;49.00;39.00;;;;;12.52;62.85;100798.66;4905260;28;45343;-66
2023/02/22 04:27:14;;;;;;;;;48.50;38.25;;;;;12.59;62.96;100807.31;4902665;28;48107;-66
2023/02/22 04:29:39;;;;;;;;;44.00;37.25;;;;;12.60;62.73;100804.56;4890224;29;45561;-66
2023/02/22 04:32:05;;;;;;;;;47.00;38.75;;;;;12.55;62.54;100803.03;4907832;28;45333;-66
2023/02/22 04:34:30;;;;;;;;;43.75;37.75;;;;;12.59;62.71;100804.63;4903573;28;45678;-66
2023/02/22 04:36:55;;;;;;;;;48.25;40.25;;;;;12.62;62.65;100809.88;4910946;28;46396;-66
2023/02/22 04:39:21;;;;;;;;;43.75;36.25;;;;;12.63;62.59;100821.44;4907787;28;45399;-66
2023/02/22 04:41:46;;;;;;;;;46.25;39.75;;;;;12.62;62.55;100819.72;4901896;29;45470;-66
2023/02/22 04:44:12;;;;;;;;;50.50;39.00;;;;;12.61;62.59;100821.50;4907428;28;45268;-66
2023/02/22 04:46:37;;;;;;;;;51.00;41.25;;;;;12.55;62.64;100811.06;4884654;29;48141;-66
2023/02/22 04:49:03;;;;;;;;;46.50;38.75;;;;;12.62;62.51;100822.41;4919069;28;45393;-66
2023/02/22 04:51:28;;;;;;;;;48.00;40.75;;;;;12.55;62.58;100819.94;4917308;28;45252;-66
2023/02/22 04:53:54;;;;;;;;;46.75;39.75;;;;;12.46;62.64;100798.03;4905272;28;45317;-66
2023/02/22 04:56:19;;;;;;;;;42.25;37.75;;;;;12.56;62.56;100829.75;4915630;28;46225;-66
2023/02/22 04:58:44;;;;;;;;;43.50;38.25;;;;;12.55;62.38;100819.94;4915353;28;45526;-66
2023/02/22 05:01:10;;;;;;;;;48.75;40.00;;;;;12.48;62.63;100810.44;4905669;28;45634;-66
2023/02/22 05:03:39;;;;;;;;;46.00;39.50;;;;;12.45;62.60;100815.91;4905946;28;45537;-66
2023/02/22 05:06:05;;;;;;;;;46.25;39.25;;;;;12.47;62.85;100819.38;4921380;28;46644;-66
2023/02/22 05:08:30;;;;;;;;;48.50;41.25;;;;;12.52;62.77;100817.41;4912230;28;45364;-66
2023/02/22 05:10:55;;;;;;;;;48.75;39.50;;;;;12.47;62.76;100816.69;4923458;28;45535;-66
2023/02/22 05:13:21;;;;;;;;;48.50;39.00;;;;;12.42;62.78;100808.84;4894987;29;45510;-66
2023/02/22 05:15:46;;;;;;;;;50.50;42.00;;;;;12.41;62.74;100808.91;4922032;28;46669;-66
2023/02/22 05:18:12;;;;;;;;;49.50;38.50;;;;;12.43;62.80;100820.44;4917069;28;45398;-66
2023/02/22 05:20:38;;;;;;;;;48.75;41.00;;;;;12.49;62.98;100827.34;4921515;28;45552;-66
2023/02/22 05:23:04;;;;;;;;;44.00;38.50;;;;;12.46;62.93;100824.78;4911785;28;45329;-66
2023/02/22 05:25:30;;;;;;;;;51.00;43.00;;;;;12.45;63.06;100823.06;4917598;28;47099;-66
2023/02/22 05:27:59;;;;;;;;;49.50;42.25;;;;;12.45;62.91;100826.59;4912738;28;45979;-66
2023/02/22 05:30:29;;;;;;;;;53.75;43.75;;;;;12.43;63.02;100815.09;4905990;28;45511;-66
2023/02/22 05:32:55;;;;;;;;;47.25;39.75;;;;;12.44;62.81;100818.63;4919477;28;45708;-66
2023/02/22 05:35:22;;;;;;;;;46.25;38.25;;;;;12.33;63.12;100794.94;4921832;28;46362;-66
2023/02/22 05:37:49;;;;;;;;;49.50;42.00;;;;;12.37;62.95;100802.81;4914755;28;45483;-66
2023/02/22 05:40:16;;;;;;;;;52.75;40.25;;;;;12.36;62.89;100805.53;4914970;28;45441;-66
2023/02/22 05:42:42;;;;;;;;;50.75;42.00;;;;;12.34;63.22;100807.41;4921799;28;45414;-66
2023/02/22 05:45:08;;;;;;;;;50.00;41.75;;;;;12.28;63.11;100797.81;4904420;29;46031;-66
2023/02/22 05:47:33;;;;;;;;;47.25;41.00;;;;;12.30;63.26;100797.75;4919234;28;45293;-66
2023/02/22 05:49:58;;;;;;;;;48.50;42.25;;;;;12.32;63.34;100811.94;4915654;28;45773;-66
2023/02/22 05:52:24;;;;;;;;;49.50;42.00;;;;;12.37;63.19;100821.53;4918166;28;45396;-66
2023/02/22 05:54:49;;;;;;;;;50.25;41.75;;;;;12.36;63.27;100814.47;4904362;29;45995;-66
2023/02/22 05:57:15;;;;;;;;;47.25;39.00;;;;;12.36;63.34;100818.91;4916936;28;45501;-66
2023/02/22 05:59:41;;;;;;;;;54.75;43.75;;;;;12.22;63.36;100801.59;4914586;28;45522;-66
2023/02/22 06:02:07;;;;;;;;;43.25;38.75;;;;;12.30;63.28;100811.16;4910745;28;45529;-66
2023/02/22 06:04:32;;;;;;;;;49.50;41.00;;;;;12.24;63.46;100798.84;4915911;28;45510;-66
2023/02/22 06:06:58;;;;;;;;;52.25;43.00;;;;;12.30;63.73;100827.19;4904758;28;45386;-66
2023/02/22 06:09:23;;;;;;;;;49.00;38.75;;;;;12.26;63.63;100823.75;4922355;28;45452;-66
2023/02/22 06:11:48;;;;;;;;;48.50;41.75;;;;;12.29;63.66;100818.28;4922402;28;45545;-66
2023/02/22 06:14:14;;;;;;;;;48.75;39.25;;;;;12.15;63.64;100802.75;4916978;28;46976;-66
2023/02/22 06:16:39;;;;;;;;;51.50;43.00;;;;;12.26;63.73;100821.06;4913078;28;45736;-66
2023/02/22 06:19:04;;;;;;;;;42.75;36.25;;;;;12.25;63.77;100818.47;4916520;28;45463;-66
2023/02/22 06:21:30;;;;;;;;;51.75;42.50;;;;;12.19;63.96;100817.75;4916469;28;45323;-66
2023/02/22 06:23:55;;;;;;;;;49.75;40.25;;;;;12.25;64.01;100829.19;4899571;29;47313;-66
2023/02/22 06:26:21;;;;;;;;;50.50;40.25;;;;;12.21;64.18;100820.38;4918458;28;45284;-66
2023/02/22 06:28:48;;;;;;;;;48.00;40.00;;;;;12.12;64.26;100808.22;4921587;28;45475;-66
2023/02/22 06:31:14;;;;;;;;;35.00;32.25;;;;;12.25;64.07;100829.19;4910481;28;45421;-66
2023/02/22 06:33:39;;;;;;;;;53.50;42.75;;;;;12.15;64.08;100812.59;4912391;28;46539;-66
2023/02/22 06:36:05;;;;;;;;;50.00;39.50;;;;;12.17;64.07;100822.28;4910570;28;45474;-66
2023/02/22 06:38:30;;;;;;;;;51.50;44.00;;;;;12.20;64.21;100824.00;4918775;28;45494;-66
2023/02/22 06:40:56;;;;;;;;;48.50;39.50;;;;;12.17;64.55;100824.09;4909947;28;45336;-66
2023/02/22 06:43:23;;;;;;;;;46.50;39.00;;;;;12.17;64.13;100829.47;4909657;28;45716;-66
2023/02/22 06:45:49;;;;;;;;;50.75;41.25;;;;;12.08;64.54;100824.44;4905232;28;45444;-66
2023/02/22 06:48:15;;;;;;;;;47.25;38.75;;;;;12.18;64.31;100839.25;4908249;28;45541;-66
2023/02/22 06:50:41;;;;;;;;;47.25;40.25;;;;;12.09;64.67;100828.88;4921090;28;45248;-66
2023/02/22 06:53:06;;;;;;;;;48.75;38.50;;;;;12.11;64.67;100835.94;4898705;29;46964;-66
2023/02/22 06:55:33;;;;;;;;;50.50;38.75;;;;;12.16;64.66;100844.66;4896415;28;45345;-66
2023/02/22 06:57:59;;;;;;;;;45.50;38.75;;;;;12.10;64.74;100839.53;4921330;28;45459;-66
2023/02/22 07:00:26;;;;;;;;;48.25;40.25;;;;;12.16;64.73;100858.03;4909124;28;45579;-66
2023/02/22 07:02:53;;;;;;;;;48.00;38.75;;;;;12.08;64.78;100848.53;4913779;28;46488;-66
2023/02/22 07:05:20;;;;;;;;;52.50;40.00;;;;;12.11;65.10;100843.06;4921131;28;45837;-66
2023/02/22 07:07:48;;;;;;;;;51.50;41.75;;;;;12.04;65.13;100829.03;4921230;28;45506;-66
2023/02/22 07:10:39;;;;;;;;;50.25;41.50;;;;;12.08;65.28;100844.06;4911212;28;45617;-66
2023/02/22 07:13:06;;;;;;;;;41.00;36.50;;;;;12.04;65.40;100840.63;4902797;28;46022;-66
2023/02/22 07:15:33;;;;;;;;;48.50;39.50;;;;;12.13;65.24;100862.59;4917872;28;45344;-66
2023/02/22 07:17:59;;;;;;;;;49.25;42.50;;;;;12.08;65.30;100857.44;4903566;28;45341;-66
2023/02/22 07:20:27;;;;;;;;;50.50;42.25;;;;;12.09;65.56;100848.47;4904017;28;45390;-66
2023/02/22 07:22:53;;;;;;;;;54.00;42.00;;;;;12.12;65.57;100864.41;4914788;28;45495;-66
2023/02/22 07:25:19;;;;;;;;;50.50;42.75;;;;;12.07;65.42;100853.00;4909359;28;45519;-65
2023/02/22 07:27:45;;;;;;;;;49.00;40.75;;;;;11.79;65.48;100810.31;4909703;28;45687;-67
2023/02/22 07:30:23;;;;;;;;;49.00;41.75;;;;;11.95;66.22;100843.63;4892420;28;45543;-68
2023/02/22 07:32:49;;;;;;;;;49.50;41.50;;;;;12.15;66.17;100884.84;4901245;28;48114;-68
2023/02/22 07:35:37;;;;;;;;;49.75;41.50;;;;;11.93;66.13;100837.47;4915287;28;45565;-68
2023/02/22 07:38:05;;;;;;;;;59.50;46.50;;;;;11.92;66.27;100833.03;4906471;28;45707;-68
2023/02/22 07:40:31;;;;;;;;;45.75;39.25;;;;;11.88;66.27;100839.41;4911368;28;45257;-68
2023/02/22 08:28:37;;;;;;;;;58.00;47.00;;;;;11.97;68.21;100884.56;5371758;23;71963;-77
2023/02/22 08:31:06;;;;;;;;;57.25;48.25;;;;;12.04;68.05;100899.50;4919013;28;45359;-78
2023/02/22 08:33:31;;;;;;;;;59.25;47.00;;;;;12.06;68.46;100899.41;4918141;28;45383;-77
2023/02/22 08:35:57;;;;;;;;;59.50;48.75;;;;;12.08;68.31;100910.97;4919380;28;45228;-77
2023/02/22 08:38:22;;;;;;;;;61.00;47.50;;;;;12.12;68.30;100919.75;4916999;28;45406;-77
2023/02/22 08:40:48;;;;;;;;;55.75;46.75;;;;;12.09;68.34;100907.34;4903418;28;45813;-77
2023/02/22 08:43:14;;;;;;;;;55.50;45.75;;;;;12.02;68.34;100887.09;4906885;28;45513;-77
2023/02/22 08:45:40;;;;;;;;;59.75;48.50;;;;;12.02;68.41;100908.50;4910873;28;45483;-76
2023/02/22 08:48:05;;;;;;;;;56.25;45.25;;;;;12.10;68.78;100935.00;4906372;28;45243;-77
2023/02/22 08:50:35;;;;;;;;;56.00;46.00;;;;;11.97;68.53;100908.66;4910136;28;45406;-77
2023/02/22 08:53:02;;;;;;;;;59.75;46.00;;;;;12.10;68.50;100921.59;4897957;28;45601;-77
2023/02/22 08:55:31;;;;;;;;;65.75;48.75;;;;;12.08;68.51;100924.34;4911237;28;45517;-77
2023/02/22 08:57:58;;;;;;;;;55.75;44.75;;;;;11.92;68.91;100896.38;4889285;28;45421;-76
2023/02/22 09:00:28;;;;;;;;;62.25;49.00;;;;;11.97;69.01;100889.91;4912003;28;45722;-77
2023/02/22 09:02:53;;;;;;;;;58.25;49.00;;;;;12.05;69.18;100925.31;4912766;28;45298;-77
2023/02/22 09:05:19;;;;;;;;;58.75;48.25;;;;;11.94;68.92;100910.56;4886325;28;48053;-77
2023/02/22 09:07:44;;;;;;;;;63.75;49.75;;;;;11.92;69.14;100902.59;4913064;28;45413;-76
2023/02/22 09:10:20;;;;;;;;;54.25;45.75;;;;;12.00;69.03;100910.34;4896602;28;45544;-77
2023/02/22 09:12:45;;;;;;;;;55.50;45.50;;;;;11.96;68.94;100909.59;4895147;28;45420;-77
2023/02/22 09:15:11;;;;;;;;;58.50;47.25;;;;;12.06;69.54;100920.81;4886107;28;48075;-77
2023/02/22 09:17:37;;;;;;;;;58.25;45.25;;;;;12.07;68.68;100921.72;4909438;28;45496;-78
2023/02/22 09:20:06;;;;;;;;;58.50;46.50;;;;;12.14;68.87;100932.13;4905660;28;45275;-78
2023/02/22 09:22:32;;;;;;;;;60.50;46.25;;;;;11.99;68.76;100901.44;4907518;28;45907;-77
2023/02/22 09:24:57;;;;;;;;;56.50;46.00;;;;;12.15;68.80;100919.63;4915102;28;45388;-78
2023/02/22 09:27:22;;;;;;;;;58.75;47.50;;;;;12.05;68.46;100895.00;4915140;28;45343;-78
2023/02/22 09:29:48;;;;;;;;;58.50;46.50;;;;;12.07;68.80;100893.16;4871232;29;45356;-77
2023/02/22 09:32:16;;;;;;;;;60.25;49.25;;;;;12.25;68.90;100914.84;4898403;29;45778;-77
2023/02/22 09:34:44;;;;;;;;;59.25;47.50;;;;;12.28;68.65;100920.03;4881133;29;47423;-77
2023/02/22 09:37:10;;;;;;;;;59.75;48.00;;;;;12.15;68.52;100899.09;4904418;29;45783;-77
2023/02/22 09:39:36;;;;;;;;;58.25;47.75;;;;;12.30;68.61;100918.22;4888903;29;45300;-79
2023/02/22 09:42:10;;;;;;;;;54.00;43.25;;;;;12.32;68.83;100914.53;4882197;29;45614;-77
2023/02/22 09:44:46;;;;;;;;;58.25;46.25;;;;;12.35;68.65;100916.22;4885497;29;47427;-77
2023/02/22 09:47:19;;;;;;;;;55.50;46.25;;;;;12.29;68.43;100905.75;4889377;29;45436;-78
2023/02/22 09:49:59;;;;;;;;;57.75;47.25;;;;;12.36;68.83;100929.56;4875773;29;46161;-77
2023/02/22 09:52:29;;;;;;;;;57.50;46.75;;;;;12.22;68.33;100905.09;4895393;29;45235;-77
2023/02/22 09:55:33;;;;;;;;;51.75;42.50;;;;;12.37;68.65;100930.44;4899928;28;46652;-77
2023/02/22 09:58:01;;;;;;;;;55.25;46.00;;;;;12.40;68.46;100922.28;4876995;29;45446;-77
2023/02/22 10:00:35;;;;;;;;;57.25;44.75;;;;;12.42;68.61;100917.75;4875616;29;45460;-76
2023/02/22 10:03:06;;;;;;;;;53.50;44.50;;;;;12.45;68.40;100923.00;4894427;29;45270;-77
2023/02/22 10:05:36;;;;;;;;;55.25;46.25;;;;;12.42;68.48;100918.59;4876483;29;47441;-77
2023/02/22 10:08:08;;;;;;;;;54.50;43.75;;;;;12.44;68.19;100913.19;4896266;28;45329;-76
2023/02/22 10:10:39;;;;;;;;;58.00;48.00;;;;;12.44;68.48;100923.03;4895052;29;45546;-76
2023/02/22 10:13:26;;;;;;;;;55.00;45.75;;;;;12.46;68.49;100926.53;4894622;29;45566;-75
2023/02/22 10:15:51;;;;;;;;;56.75;46.00;;;;;12.40;68.52;100917.78;4880755;29;47386;-77
2023/02/22 10:18:55;;;;;;;;;59.00;48.33;;;;;12.49;68.40;100921.94;4899841;29;45404;-77
2023/02/22 10:21:35;;;;;;;;;59.50;47.00;;;;;12.46;68.49;100910.47;4892095;28;45449;-77
2023/02/22 10:24:21;;;;;;;;;56.50;46.00;;;;;12.55;68.51;100924.38;4897203;29;45508;-78
2023/02/22 10:26:48;;;;;;;;;53.50;44.50;;;;;12.55;68.42;100920.84;4901944;28;46207;-77
2023/02/22 10:29:33;;;;;;;;;56.50;45.50;;;;;12.58;68.51;100918.06;4908242;28;45309;-76
2023/02/22 10:32:03;;;;;;;;;57.75;46.25;;;;;12.60;68.73;100921.53;4898519;28;45482;-79
2023/02/22 10:34:42;;;;;;;;;56.75;46.75;;;;;12.60;68.59;100930.44;4917299;28;45568;-77
2023/02/22 10:37:27;;;;;;;;;55.00;44.25;;;;;12.62;68.34;100926.84;4921484;28;46489;-76
2023/02/22 10:40:04;;;;;;;;;58.50;48.25;;;;;12.52;68.41;100907.56;4922453;28;45484;-76
2023/02/22 10:42:30;;;;;;;;;57.75;45.25;;;;;12.56;68.72;100910.06;4893683;28;45286;-76
2023/02/22 10:44:55;;;;;;;;;56.25;44.75;;;;;12.54;68.27;100895.84;4893785;28;45762;-76
2023/02/22 10:47:22;;;;;;;;;61.25;48.50;;;;;12.67;68.23;100916.81;4905370;28;45398;-76
2023/02/22 10:49:52;;;;;;;;;52.25;43.00;;;;;12.71;68.64;100929.16;4890053;28;45897;-76
2023/02/22 10:52:35;;;;;;;;;55.50;46.00;;;;;12.74;68.29;100926.34;4894345;29;45556;-77
2023/02/22 10:55:02;;;;;;;;;57.75;46.25;;;;;12.74;68.34;100924.53;4917445;28;45469;-78
2023/02/22 10:57:32;;;;;;;;;55.75;44.00;;;;;12.64;68.05;100901.72;4913731;28;45700;-78
2023/02/22 11:00:28;;;;;;;;;57.50;44.50;;;;;12.73;68.06;100921.91;4918080;28;45873;-78
2023/02/22 11:03:16;;;;;;;;;55.50;44.75;;;;;12.76;68.07;100935.19;4901022;28;45559;-78
2023/02/22 11:05:43;;;;;;;;;57.25;46.25;;;;;12.74;68.05;100937.94;4915822;28;45465;-78
2023/02/22 11:08:31;;;;;;;;;54.50;45.25;;;;;12.75;68.29;100930.78;4896520;28;48261;-78
2023/02/22 11:11:02;;;;;;;;;55.75;45.25;;;;;12.67;68.47;100915.00;4917401;28;45722;-77
2023/02/22 11:13:37;;;;;;;;;52.50;43.00;;;;;12.75;68.12;100938.84;4913559;28;45356;-78
2023/02/22 11:16:24;;;;;;;;;54.75;45.50;;;;;12.61;68.33;100907.19;4917454;28;45527;-78
2023/02/22 11:19:00;;;;;;;;;56.75;43.75;;;;;12.73;68.16;100925.50;4915857;28;47291;-78
2023/02/22 11:21:25;;;;;;;;;53.25;43.75;;;;;12.69;68.26;100906.91;4887334;28;45902;-78
2023/02/22 11:24:01;;;;;;;;;56.00;44.50;;;;;12.73;67.86;100914.78;4910385;28;46836;-78
2023/02/22 11:26:27;;;;;;;;;55.25;46.25;;;;;12.82;67.81;100931.44;4909746;28;45442;-78
2023/02/22 11:28:55;;;;;;;;;55.50;46.50;;;;;12.62;68.25;100892.03;4896528;28;47382;-78
2023/02/22 11:31:25;;;;;;;;;52.50;41.00;;;;;12.84;68.17;100924.22;4912807;28;45575;-78
2023/02/22 11:34:02;;;;;;;;;59.75;47.75;;;;;12.85;68.07;100932.19;4888993;29;45465;-78
2023/02/22 11:36:39;;;;;;;;;55.50;45.75;;;;;12.86;68.26;100928.56;4914024;28;45462;-76
2023/02/22 11:39:29;;;;;;;;;52.00;43.00;;;;;12.64;67.90;100882.13;4907126;28;45576;-76
2023/02/22 11:41:55;;;;;;;;;52.75;42.00;;;;;12.90;67.95;100926.66;4915514;28;45416;-76
2023/02/22 11:44:24;;;;;;;;;54.75;45.00;;;;;12.93;67.87;100921.16;4913155;28;45478;-77
2023/02/22 11:46:54;;;;;;;;;59.50;47.00;;;;;12.86;67.85;100912.47;4898386;28;45489;-76
2023/02/22 11:49:22;;;;;;;;;51.75;42.00;;;;;12.71;67.63;100886.28;4905697;28;45475;-75
2023/02/22 11:52:05;;;;;;;;;53.50;43.00;;;;;12.91;67.75;100913.19;4919479;28;45291;-76
2023/02/22 11:55:04;;;;;;;;;52.00;40.75;;;;;12.93;67.56;100915.78;4907979;28;45486;-78
2023/02/22 11:57:48;;;;;;;;;56.50;45.50;;;;;12.95;67.53;100911.28;4888879;28;45531;-78
2023/02/22 12:00:25;;;;;;;;;50.00;41.00;;;;;12.75;67.44;100877.22;4908274;28;45804;-78
2023/02/22 12:03:03;;;;;;;;;50.25;41.25;;;;;12.92;67.38;100901.53;4896951;28;45297;-78
2023/02/22 12:05:44;;;;;;;;;45.25;38.75;;;;;12.91;67.14;100886.41;4908299;28;45445;-78
2023/02/22 12:08:51;;;;;;;;;54.00;45.00;;;;;12.97;67.64;100894.19;4912354;28;45320;-78
2023/02/22 12:11:34;;;;;;;;;54.00;42.50;;;;;12.84;67.51;100878.66;4884865;29;45318;-78